sensor_id;sensor_type;location;lat;lon;timestamp;temperature;humidity
16441;DHT22;8330;-33.858;151.184;2023-11-21T00:01:59;24.20;99.90
16441;DHT22;8330;-33.858;151.184;2023-11-21T00:04:32;24.00;99.90
16441;DHT22;8330;-33.858;151.184;2023-11-21T00:07:02;24.10;99.90
16441;DHT22;8330;-33.858;151.184;2023-11-21T00:09:34;24.10;99.90
16441;DHT22;8330;-33.858;151.184;2023-11-21T00:12:05;24.00;99.90
16441;DHT22;8330;-33.858;151.184;2023-11-21T00:14:37;23.90;99.90
16441;DHT22;8330;-33.858;151.184;2023-11-21T00:17:08;23.90;99.90
16441;DHT22;8330;-33.858;151.184;2023-11-21T00:19:41;23.90;99.90
16441;DHT22;8330;-33.858;151.184;2023-11-21T00:22:12;23.90;99.90
16441;DHT22;8330;-33.858;151.184;2023-11-21T00:24:43;23.90;99.90
16441;DHT22;8330;-33.858;151.184;2023-11-21T00:27:14;24.00;99.90
16441;DHT22;8330;-33.858;151.184;2023-11-21T00:29:45;24.10;99.90
16441;DHT22;8330;-33.858;151.184;2023-11-21T00:32:16;24.00;99.90
16441;DHT22;8330;-33.858;151.184;2023-11-21T00:34:49;24.20;99.90
16441;DHT22;8330;-33.858;151.184;2023-11-21T00:37:19;24.50;99.90
16441;DHT22;8330;-33.858;151.184;2023-11-21T00:39:51;24.60;99.90
16441;DHT22;8330;-33.858;151.184;2023-11-21T00:42:22;24.70;99.90
16441;DHT22;8330;-33.858;151.184;2023-11-21T00:44:53;24.80;99.90
16441;DHT22;8330;-33.858;151.184;2023-11-21T00:47:24;24.80;99.90
16441;DHT22;8330;-33.858;151.184;2023-11-21T00:49:56;25.10;99.90
16441;DHT22;8330;-33.858;151.184;2023-11-21T00:52:27;25.30;99.90
16441;DHT22;8330;-33.858;151.184;2023-11-21T00:54:58;25.40;99.90
16441;DHT22;8330;-33.858;151.184;2023-11-21T00:57:29;25.60;99.90
16441;DHT22;8330;-33.858;151.184;2023-11-21T01:00:00;25.40;99.90
16441;DHT22;8330;-33.858;151.184;2023-11-21T01:02:34;25.20;99.90
16441;DHT22;8330;-33.858;151.184;2023-11-21T01:05:08;25.10;99.90
16441;DHT22;8330;-33.858;151.184;2023-11-21T01:07:39;25.20;99.90
16441;DHT22;8330;-33.858;151.184;2023-11-21T01:10:10;25.20;99.90
16441;DHT22;8330;-33.858;151.184;2023-11-21T01:12:40;25.20;99.90
16441;DHT22;8330;-33.858;151.184;2023-11-21T01:15:11;25.30;99.90
16441;DHT22;8330;-33.858;151.184;2023-11-21T01:17:42;25.50;99.90
16441;DHT22;8330;-33.858;151.184;2023-11-21T01:20:15;25.70;99.90
16441;DHT22;8330;-33.858;151.184;2023-11-21T01:22:46;25.70;99.90
16441;DHT22;8330;-33.858;151.184;2023-11-21T01:25:17;25.70;99.90
16441;DHT22;8330;-33.858;151.184;2023-11-21T01:27:48;25.80;99.90
16441;DHT22;8330;-33.858;151.184;2023-11-21T01:30:19;25.40;99.90
16441;DHT22;8330;-33.858;151.184;2023-11-21T01:32:50;25.50;99.90
16441;DHT22;8330;-33.858;151.184;2023-11-21T01:35:23;25.30;99.90
16441;DHT22;8330;-33.858;151.184;2023-11-21T01:37:53;25.50;99.90
16441;DHT22;8330;-33.858;151.184;2023-11-21T01:40:24;25.50;99.90
16441;DHT22;8330;-33.858;151.184;2023-11-21T01:42:56;25.50;99.90
16441;DHT22;8330;-33.858;151.184;2023-11-21T01:45:27;25.50;99.90
16441;DHT22;8330;-33.858;151.184;2023-11-21T01:47:59;25.50;99.90
16441;DHT22;8330;-33.858;151.184;2023-11-21T01:50:32;25.50;99.90
16441;DHT22;8330;-33.858;151.184;2023-11-21T01:53:03;25.50;99.90
16441;DHT22;8330;-33.858;151.184;2023-11-21T01:55:34;25.60;99.90
16441;DHT22;8330;-33.858;151.184;2023-11-21T01:58:06;25.70;99.90
16441;DHT22;8330;-33.858;151.184;2023-11-21T02:00:37;25.90;99.90
16441;DHT22;8330;-33.858;151.184;2023-11-21T02:03:08;25.70;99.90
16441;DHT22;8330;-33.858;151.184;2023-11-21T02:05:41;25.70;99.90
16441;DHT22;8330;-33.858;151.184;2023-11-21T02:08:12;25.70;99.90
16441;DHT22;8330;-33.858;151.184;2023-11-21T02:10:43;25.70;99.90
16441;DHT22;8330;-33.858;151.184;2023-11-21T02:13:15;25.60;99.90
16441;DHT22;8330;-33.858;151.184;2023-11-21T02:15:46;25.80;99.90
16441;DHT22;8330;-33.858;151.184;2023-11-21T02:18:20;25.80;99.90
16441;DHT22;8330;-33.858;151.184;2023-11-21T02:20:53;25.90;99.90
16441;DHT22;8330;-33.858;151.184;2023-11-21T02:23:25;25.90;99.90
16441;DHT22;8330;-33.858;151.184;2023-11-21T02:25:56;25.70;99.90
16441;DHT22;8330;-33.858;151.184;2023-11-21T02:28:32;25.60;99.90
16441;DHT22;8330;-33.858;151.184;2023-11-21T02:31:02;25.40;99.90
16441;DHT22;8330;-33.858;151.184;2023-11-21T02:33:33;25.40;99.90
16441;DHT22;8330;-33.858;151.184;2023-11-21T02:36:05;25.40;99.90
16441;DHT22;8330;-33.858;151.184;2023-11-21T02:38:37;25.40;99.90
16441;DHT22;8330;-33.858;151.184;2023-11-21T02:41:08;25.40;99.90
16441;DHT22;8330;-33.858;151.184;2023-11-21T02:43:39;25.40;99.90
16441;DHT22;8330;-33.858;151.184;2023-11-21T02:46:10;25.30;99.90
16441;DHT22;8330;-33.858;151.184;2023-11-21T02:48:41;25.30;99.90
16441;DHT22;8330;-33.858;151.184;2023-11-21T02:51:12;25.40;99.90
16441;DHT22;8330;-33.858;151.184;2023-11-21T02:53:45;25.30;99.90
16441;DHT22;8330;-33.858;151.184;2023-11-21T02:56:16;25.50;99.90
16441;DHT22;8330;-33.858;151.184;2023-11-21T02:58:47;25.50;99.90
16441;DHT22;8330;-33.858;151.184;2023-11-21T03:01:18;25.90;99.90
16441;DHT22;8330;-33.858;151.184;2023-11-21T03:03:49;26.00;99.90
16441;DHT22;8330;-33.858;151.184;2023-11-21T03:06:20;26.30;99.90
16441;DHT22;8330;-33.858;151.184;2023-11-21T03:08:53;26.20;99.90
16441;DHT22;8330;-33.858;151.184;2023-11-21T03:11:24;26.30;99.90
16441;DHT22;8330;-33.858;151.184;2023-11-21T03:13:55;26.30;99.90
16441;DHT22;8330;-33.858;151.184;2023-11-21T03:16:26;26.70;99.90
16441;DHT22;8330;-33.858;151.184;2023-11-21T03:18:56;27.00;99.90
16441;DHT22;8330;-33.858;151.184;2023-11-21T03:21:27;26.80;99.90
16441;DHT22;8330;-33.858;151.184;2023-11-21T03:24:01;26.60;99.90
16441;DHT22;8330;-33.858;151.184;2023-11-21T03:26:32;26.40;99.90
16441;DHT22;8330;-33.858;151.184;2023-11-21T03:29:03;26.60;99.90
16441;DHT22;8330;-33.858;151.184;2023-11-21T03:31:34;26.30;99.90
16441;DHT22;8330;-33.858;151.184;2023-11-21T03:34:05;26.20;99.90
16441;DHT22;8330;-33.858;151.184;2023-11-21T03:36:36;26.40;99.90
16441;DHT22;8330;-33.858;151.184;2023-11-21T03:39:09;26.90;99.90
16441;DHT22;8330;-33.858;151.184;2023-11-21T03:41:39;27.30;99.90
16441;DHT22;8330;-33.858;151.184;2023-11-21T03:44:10;27.40;99.90
16441;DHT22;8330;-33.858;151.184;2023-11-21T03:46:41;26.90;99.90
16441;DHT22;8330;-33.858;151.184;2023-11-21T03:49:12;26.60;99.90
16441;DHT22;8330;-33.858;151.184;2023-11-21T03:51:42;26.60;99.90
16441;DHT22;8330;-33.858;151.184;2023-11-21T03:54:15;26.70;99.90
16441;DHT22;8330;-33.858;151.184;2023-11-21T03:56:46;26.80;99.90
16441;DHT22;8330;-33.858;151.184;2023-11-21T03:59:17;27.20;99.90
16441;DHT22;8330;-33.858;151.184;2023-11-21T04:01:48;27.20;99.90
16441;DHT22;8330;-33.858;151.184;2023-11-21T04:04:19;27.40;99.90
16441;DHT22;8330;-33.858;151.184;2023-11-21T04:06:49;27.30;99.90
16441;DHT22;8330;-33.858;151.184;2023-11-21T04:09:23;27.70;99.90
16441;DHT22;8330;-33.858;151.184;2023-11-21T04:11:54;28.10;99.90
16441;DHT22;8330;-33.858;151.184;2023-11-21T04:14:25;28.20;99.90
16441;DHT22;8330;-33.858;151.184;2023-11-21T04:16:56;28.40;99.90
16441;DHT22;8330;-33.858;151.184;2023-11-21T04:19:27;28.70;99.90
16441;DHT22;8330;-33.858;151.184;2023-11-21T04:21:57;28.50;99.90
16441;DHT22;8330;-33.858;151.184;2023-11-21T04:24:30;28.40;99.90
16441;DHT22;8330;-33.858;151.184;2023-11-21T04:27:01;28.30;99.90
16441;DHT22;8330;-33.858;151.184;2023-11-21T04:29:32;28.50;99.90
16441;DHT22;8330;-33.858;151.184;2023-11-21T04:32:03;28.40;99.90
16441;DHT22;8330;-33.858;151.184;2023-11-21T04:34:34;28.30;99.90
16441;DHT22;8330;-33.858;151.184;2023-11-21T04:37:05;28.40;99.90
16441;DHT22;8330;-33.858;151.184;2023-11-21T04:39:39;28.60;99.90
16441;DHT22;8330;-33.858;151.184;2023-11-21T04:42:09;28.50;99.90
16441;DHT22;8330;-33.858;151.184;2023-11-21T04:44:40;28.50;99.90
16441;DHT22;8330;-33.858;151.184;2023-11-21T04:47:12;29.00;99.90
16441;DHT22;8330;-33.858;151.184;2023-11-21T04:49:43;29.20;99.90
16441;DHT22;8330;-33.858;151.184;2023-11-21T04:52:16;29.70;99.90
16441;DHT22;8330;-33.858;151.184;2023-11-21T04:54:49;29.80;99.90
16441;DHT22;8330;-33.858;151.184;2023-11-21T04:57:22;29.80;99.90
16441;DHT22;8330;-33.858;151.184;2023-11-21T04:59:53;30.00;99.90
16441;DHT22;8330;-33.858;151.184;2023-11-21T05:02:23;30.10;99.90
16441;DHT22;8330;-33.858;151.184;2023-11-21T05:04:54;30.50;99.90
16441;DHT22;8330;-33.858;151.184;2023-11-21T05:07:25;30.50;99.90
16441;DHT22;8330;-33.858;151.184;2023-11-21T05:09:58;30.50;99.90
16441;DHT22;8330;-33.858;151.184;2023-11-21T05:12:32;30.60;99.90
16441;DHT22;8330;-33.858;151.184;2023-11-21T05:15:05;30.60;99.90
16441;DHT22;8330;-33.858;151.184;2023-11-21T05:17:37;30.70;99.90
16441;DHT22;8330;-33.858;151.184;2023-11-21T05:20:10;30.80;99.90
16441;DHT22;8330;-33.858;151.184;2023-11-21T05:22:41;30.80;99.90
16441;DHT22;8330;-33.858;151.184;2023-11-21T05:25:14;31.10;99.90
16441;DHT22;8330;-33.858;151.184;2023-11-21T05:27:46;31.10;99.90
16441;DHT22;8330;-33.858;151.184;2023-11-21T05:30:16;31.00;99.90
16441;DHT22;8330;-33.858;151.184;2023-11-21T05:32:48;31.20;99.90
16441;DHT22;8330;-33.858;151.184;2023-11-21T05:35:19;31.30;99.90
16441;DHT22;8330;-33.858;151.184;2023-11-21T05:37:50;31.50;99.90
16441;DHT22;8330;-33.858;151.184;2023-11-21T05:40:23;31.90;99.90
16441;DHT22;8330;-33.858;151.184;2023-11-21T05:42:57;31.90;99.90
16441;DHT22;8330;-33.858;151.184;2023-11-21T05:45:28;32.00;99.90
16441;DHT22;8330;-33.858;151.184;2023-11-21T05:47:59;31.90;99.90
16441;DHT22;8330;-33.858;151.184;2023-11-21T05:50:30;31.50;99.90
16441;DHT22;8330;-33.858;151.184;2023-11-21T05:53:01;30.70;99.90
16441;DHT22;8330;-33.858;151.184;2023-11-21T05:55:35;30.20;99.90
16441;DHT22;8330;-33.858;151.184;2023-11-21T05:58:07;29.70;99.90
16441;DHT22;8330;-33.858;151.184;2023-11-21T06:00:41;29.20;99.90
16441;DHT22;8330;-33.858;151.184;2023-11-21T06:03:12;28.70;99.90
16441;DHT22;8330;-33.858;151.184;2023-11-21T06:05:42;28.20;99.90
16441;DHT22;8330;-33.858;151.184;2023-11-21T06:08:13;27.90;99.90
16441;DHT22;8330;-33.858;151.184;2023-11-21T06:10:46;27.70;99.90
16441;DHT22;8330;-33.858;151.184;2023-11-21T06:13:17;27.60;99.90
16441;DHT22;8330;-33.858;151.184;2023-11-21T06:15:52;27.40;99.90
16441;DHT22;8330;-33.858;151.184;2023-11-21T06:18:23;27.10;99.90
16441;DHT22;8330;-33.858;151.184;2023-11-21T06:20:54;27.10;99.90
16441;DHT22;8330;-33.858;151.184;2023-11-21T06:23:25;27.20;99.90
16441;DHT22;8330;-33.858;151.184;2023-11-21T06:25:58;27.10;99.90
16441;DHT22;8330;-33.858;151.184;2023-11-21T06:28:29;27.20;99.90
16441;DHT22;8330;-33.858;151.184;2023-11-21T06:30:59;27.40;99.90
16441;DHT22;8330;-33.858;151.184;2023-11-21T06:33:32;27.70;99.90
16441;DHT22;8330;-33.858;151.184;2023-11-21T06:36:03;27.70;99.90
16441;DHT22;8330;-33.858;151.184;2023-11-21T06:38:34;27.60;99.90
16441;DHT22;8330;-33.858;151.184;2023-11-21T06:41:07;27.50;99.90
16441;DHT22;8330;-33.858;151.184;2023-11-21T06:43:38;27.50;99.90
16441;DHT22;8330;-33.858;151.184;2023-11-21T06:46:09;27.40;99.90
16441;DHT22;8330;-33.858;151.184;2023-11-21T06:48:43;28.00;99.90
16441;DHT22;8330;-33.858;151.184;2023-11-21T06:51:14;28.60;99.90
16441;DHT22;8330;-33.858;151.184;2023-11-21T06:53:45;28.60;99.90
16441;DHT22;8330;-33.858;151.184;2023-11-21T06:56:21;28.20;99.90
16441;DHT22;8330;-33.858;151.184;2023-11-21T06:58:52;27.90;99.90
16441;DHT22;8330;-33.858;151.184;2023-11-21T07:01:23;27.60;99.90
16441;DHT22;8330;-33.858;151.184;2023-11-21T07:03:54;27.30;99.90
16441;DHT22;8330;-33.858;151.184;2023-11-21T07:06:25;27.10;99.90
16441;DHT22;8330;-33.858;151.184;2023-11-21T07:08:55;27.20;99.90
16441;DHT22;8330;-33.858;151.184;2023-11-21T07:11:28;27.10;99.90
16441;DHT22;8330;-33.858;151.184;2023-11-21T07:14:00;27.10;99.90
16441;DHT22;8330;-33.858;151.184;2023-11-21T07:16:35;27.00;99.90
16441;DHT22;8330;-33.858;151.184;2023-11-21T07:19:06;26.90;99.90
16441;DHT22;8330;-33.858;151.184;2023-11-21T07:21:38;26.90;99.90
16441;DHT22;8330;-33.858;151.184;2023-11-21T07:24:09;26.80;99.90
16441;DHT22;8330;-33.858;151.184;2023-11-21T07:26:42;27.10;99.90
16441;DHT22;8330;-33.858;151.184;2023-11-21T07:29:13;27.70;99.90
16441;DHT22;8330;-33.858;151.184;2023-11-21T07:31:44;28.10;99.90
16441;DHT22;8330;-33.858;151.184;2023-11-21T07:34:15;28.50;99.90
16441;DHT22;8330;-33.858;151.184;2023-11-21T07:36:46;28.40;99.90
16441;DHT22;8330;-33.858;151.184;2023-11-21T07:39:17;28.20;99.90
16441;DHT22;8330;-33.858;151.184;2023-11-21T07:41:49;27.90;99.90
16441;DHT22;8330;-33.858;151.184;2023-11-21T07:44:20;27.50;99.90
16441;DHT22;8330;-33.858;151.184;2023-11-21T07:46:51;27.10;99.90
16441;DHT22;8330;-33.858;151.184;2023-11-21T07:49:25;26.90;99.90
16441;DHT22;8330;-33.858;151.184;2023-11-21T07:51:56;26.60;99.90
16441;DHT22;8330;-33.858;151.184;2023-11-21T07:54:26;26.40;99.90
16441;DHT22;8330;-33.858;151.184;2023-11-21T07:56:59;26.20;99.90
16441;DHT22;8330;-33.858;151.184;2023-11-21T07:59:32;26.00;99.90
16441;DHT22;8330;-33.858;151.184;2023-11-21T08:02:03;25.90;99.90
16441;DHT22;8330;-33.858;151.184;2023-11-21T08:04:33;25.70;99.90
16441;DHT22;8330;-33.858;151.184;2023-11-21T08:07:05;25.50;99.90
16441;DHT22;8330;-33.858;151.184;2023-11-21T08:09:36;25.30;99.90
16441;DHT22;8330;-33.858;151.184;2023-11-21T08:12:09;25.10;99.90
16441;DHT22;8330;-33.858;151.184;2023-11-21T08:14:40;25.00;99.90
16441;DHT22;8330;-33.858;151.184;2023-11-21T08:17:11;25.00;99.90
16441;DHT22;8330;-33.858;151.184;2023-11-21T08:19:42;24.90;99.90
16441;DHT22;8330;-33.858;151.184;2023-11-21T08:22:17;24.80;99.90
16441;DHT22;8330;-33.858;151.184;2023-11-21T08:24:48;24.70;99.90
16441;DHT22;8330;-33.858;151.184;2023-11-21T08:27:21;24.60;99.90
16441;DHT22;8330;-33.858;151.184;2023-11-21T08:29:51;24.40;99.90
16441;DHT22;8330;-33.858;151.184;2023-11-21T08:32:25;24.40;99.90
16441;DHT22;8330;-33.858;151.184;2023-11-21T08:34:56;24.30;99.90
16441;DHT22;8330;-33.858;151.184;2023-11-21T08:37:27;24.30;99.90
16441;DHT22;8330;-33.858;151.184;2023-11-21T08:40:00;24.30;99.90
16441;DHT22;8330;-33.858;151.184;2023-11-21T08:42:33;24.20;99.90
16441;DHT22;8330;-33.858;151.184;2023-11-21T08:45:04;24.20;99.90
16441;DHT22;8330;-33.858;151.184;2023-11-21T08:47:36;24.20;99.90
16441;DHT22;8330;-33.858;151.184;2023-11-21T08:50:08;24.20;99.90
16441;DHT22;8330;-33.858;151.184;2023-11-21T08:52:40;24.10;99.90
16441;DHT22;8330;-33.858;151.184;2023-11-21T08:55:10;24.10;99.90
16441;DHT22;8330;-33.858;151.184;2023-11-21T08:57:45;23.90;99.90
16441;DHT22;8330;-33.858;151.184;2023-11-21T09:00:16;23.90;99.90
16441;DHT22;8330;-33.858;151.184;2023-11-21T09:02:47;23.80;99.90
16441;DHT22;8330;-33.858;151.184;2023-11-21T09:05:18;23.80;99.90
16441;DHT22;8330;-33.858;151.184;2023-11-21T09:07:49;23.90;99.90
16441;DHT22;8330;-33.858;151.184;2023-11-21T09:10:20;23.90;99.90
16441;DHT22;8330;-33.858;151.184;2023-11-21T09:12:53;23.80;99.90
16441;DHT22;8330;-33.858;151.184;2023-11-21T09:15:24;23.80;99.90
16441;DHT22;8330;-33.858;151.184;2023-11-21T09:17:55;23.70;99.90
16441;DHT22;8330;-33.858;151.184;2023-11-21T09:20:26;23.70;99.90
16441;DHT22;8330;-33.858;151.184;2023-11-21T09:22:57;23.60;99.90
16441;DHT22;8330;-33.858;151.184;2023-11-21T09:25:27;23.60;99.90
16441;DHT22;8330;-33.858;151.184;2023-11-21T09:28:00;23.50;99.90
16441;DHT22;8330;-33.858;151.184;2023-11-21T09:30:32;23.50;99.90
16441;DHT22;8330;-33.858;151.184;2023-11-21T09:33:03;23.60;99.90
16441;DHT22;8330;-33.858;151.184;2023-11-21T09:35:35;23.50;99.90
16441;DHT22;8330;-33.858;151.184;2023-11-21T09:38:06;23.50;99.90
16441;DHT22;8330;-33.858;151.184;2023-11-21T09:40:38;23.50;99.90
16441;DHT22;8330;-33.858;151.184;2023-11-21T09:43:16;23.50;99.90
16441;DHT22;8330;-33.858;151.184;2023-11-21T09:45:48;23.50;99.90
16441;DHT22;8330;-33.858;151.184;2023-11-21T09:48:22;23.50;99.90
16441;DHT22;8330;-33.858;151.184;2023-11-21T09:50:54;23.40;99.90
16441;DHT22;8330;-33.858;151.184;2023-11-21T09:53:27;23.30;99.90
16441;DHT22;8330;-33.858;151.184;2023-11-21T09:55:59;23.30;99.90
16441;DHT22;8330;-33.858;151.184;2023-11-21T09:58:33;23.30;99.90
16441;DHT22;8330;-33.858;151.184;2023-11-21T10:01:04;23.30;99.90
16441;DHT22;8330;-33.858;151.184;2023-11-21T10:03:37;23.30;99.90
16441;DHT22;8330;-33.858;151.184;2023-11-21T10:06:10;23.30;99.90
16441;DHT22;8330;-33.858;151.184;2023-11-21T10:08:44;23.30;99.90
16441;DHT22;8330;-33.858;151.184;2023-11-21T10:11:16;23.30;99.90
16441;DHT22;8330;-33.858;151.184;2023-11-21T10:13:50;23.30;99.90
16441;DHT22;8330;-33.858;151.184;2023-11-21T10:16:26;23.30;99.90
16441;DHT22;8330;-33.858;151.184;2023-11-21T10:18:59;23.30;99.90
16441;DHT22;8330;-33.858;151.184;2023-11-21T10:21:31;23.10;99.90
16441;DHT22;8330;-33.858;151.184;2023-11-21T10:24:03;23.10;99.90
16441;DHT22;8330;-33.858;151.184;2023-11-21T10:26:35;23.10;99.90
16441;DHT22;8330;-33.858;151.184;2023-11-21T10:29:07;23.10;99.90
16441;DHT22;8330;-33.858;151.184;2023-11-21T10:31:40;23.10;99.90
16441;DHT22;8330;-33.858;151.184;2023-11-21T10:34:16;23.10;99.90
16441;DHT22;8330;-33.858;151.184;2023-11-21T10:36:47;23.10;99.90
16441;DHT22;8330;-33.858;151.184;2023-11-21T10:39:19;23.10;99.90
16441;DHT22;8330;-33.858;151.184;2023-11-21T10:41:51;23.10;99.90
16441;DHT22;8330;-33.858;151.184;2023-11-21T10:44:24;23.10;99.90
16441;DHT22;8330;-33.858;151.184;2023-11-21T10:46:55;23.10;99.90
16441;DHT22;8330;-33.858;151.184;2023-11-21T10:49:28;23.10;99.90
16441;DHT22;8330;-33.858;151.184;2023-11-21T10:51:59;23.10;99.90
16441;DHT22;8330;-33.858;151.184;2023-11-21T10:54:31;23.10;99.90
16441;DHT22;8330;-33.858;151.184;2023-11-21T10:57:05;23.10;99.90
16441;DHT22;8330;-33.858;151.184;2023-11-21T10:59:38;23.10;99.90
16441;DHT22;8330;-33.858;151.184;2023-11-21T11:02:18;23.10;99.90
16441;DHT22;8330;-33.858;151.184;2023-11-21T11:04:53;23.10;99.90
16441;DHT22;8330;-33.858;151.184;2023-11-21T11:07:27;23.00;99.90
16441;DHT22;8330;-33.858;151.184;2023-11-21T11:10:02;22.80;99.90
16441;DHT22;8330;-33.858;151.184;2023-11-21T11:12:33;22.70;99.90
16441;DHT22;8330;-33.858;151.184;2023-11-21T11:15:06;22.70;99.90
16441;DHT22;8330;-33.858;151.184;2023-11-21T11:17:39;22.60;99.90
16441;DHT22;8330;-33.858;151.184;2023-11-21T11:20:14;22.60;99.90
16441;DHT22;8330;-33.858;151.184;2023-11-21T11:22:56;22.70;99.90
16441;DHT22;8330;-33.858;151.184;2023-11-21T11:25:57;22.70;99.90
16441;DHT22;8330;-33.858;151.184;2023-11-21T11:28:35;22.70;99.90
16441;DHT22;8330;-33.858;151.184;2023-11-21T11:31:14;22.70;99.90
16441;DHT22;8330;-33.858;151.184;2023-11-21T11:33:53;22.70;99.90
16441;DHT22;8330;-33.858;151.184;2023-11-21T11:36:29;22.80;99.90
16441;DHT22;8330;-33.858;151.184;2023-11-21T11:39:02;22.80;99.90
16441;DHT22;8330;-33.858;151.184;2023-11-21T11:41:33;22.80;99.90
16441;DHT22;8330;-33.858;151.184;2023-11-21T11:47:19;22.70;99.90
16441;DHT22;8330;-33.858;151.184;2023-11-21T11:49:58;22.60;99.90
16441;DHT22;8330;-33.858;151.184;2023-11-21T11:52:35;22.50;99.90
16441;DHT22;8330;-33.858;151.184;2023-11-21T11:55:08;22.40;99.90
16441;DHT22;8330;-33.858;151.184;2023-11-21T11:57:46;22.40;99.90
16441;DHT22;8330;-33.858;151.184;2023-11-21T12:00:19;22.40;99.90
16441;DHT22;8330;-33.858;151.184;2023-11-21T12:02:55;22.50;99.90
16441;DHT22;8330;-33.858;151.184;2023-11-21T12:05:27;22.40;99.90
16441;DHT22;8330;-33.858;151.184;2023-11-21T12:08:01;22.30;99.90
16441;DHT22;8330;-33.858;151.184;2023-11-21T12:10:33;22.30;99.90
16441;DHT22;8330;-33.858;151.184;2023-11-21T12:13:05;22.20;99.90
16441;DHT22;8330;-33.858;151.184;2023-11-21T12:15:38;22.20;99.90
16441;DHT22;8330;-33.858;151.184;2023-11-21T12:18:11;22.30;99.90
16441;DHT22;8330;-33.858;151.184;2023-11-21T12:20:42;22.30;99.90
16441;DHT22;8330;-33.858;151.184;2023-11-21T12:23:14;22.30;99.90
16441;DHT22;8330;-33.858;151.184;2023-11-21T12:25:45;22.30;99.90
16441;DHT22;8330;-33.858;151.184;2023-11-21T12:28:16;22.20;99.90
16441;DHT22;8330;-33.858;151.184;2023-11-21T12:30:47;22.30;99.90
16441;DHT22;8330;-33.858;151.184;2023-11-21T12:33:19;22.30;99.90
16441;DHT22;8330;-33.858;151.184;2023-11-21T12:35:50;22.30;99.90
16441;DHT22;8330;-33.858;151.184;2023-11-21T12:38:21;22.30;99.90
16441;DHT22;8330;-33.858;151.184;2023-11-21T12:40:52;22.40;99.90
16441;DHT22;8330;-33.858;151.184;2023-11-21T12:43:25;22.40;99.90
16441;DHT22;8330;-33.858;151.184;2023-11-21T12:46:06;22.40;99.90
16441;DHT22;8330;-33.858;151.184;2023-11-21T12:48:41;22.50;99.90
16441;DHT22;8330;-33.858;151.184;2023-11-21T12:51:13;22.50;99.90
16441;DHT22;8330;-33.858;151.184;2023-11-21T12:53:44;22.40;99.90
16441;DHT22;8330;-33.858;151.184;2023-11-21T12:56:15;22.50;99.90
16441;DHT22;8330;-33.858;151.184;2023-11-21T12:58:46;22.40;99.90
16441;DHT22;8330;-33.858;151.184;2023-11-21T13:01:19;22.50;99.90
16441;DHT22;8330;-33.858;151.184;2023-11-21T13:03:52;22.50;99.90
16441;DHT22;8330;-33.858;151.184;2023-11-21T13:06:23;22.50;99.90
16441;DHT22;8330;-33.858;151.184;2023-11-21T13:08:55;22.50;99.90
16441;DHT22;8330;-33.858;151.184;2023-11-21T13:11:27;22.60;99.90
16441;DHT22;8330;-33.858;151.184;2023-11-21T13:14:00;22.50;99.90
16441;DHT22;8330;-33.858;151.184;2023-11-21T13:16:33;22.40;99.90
16441;DHT22;8330;-33.858;151.184;2023-11-21T13:19:05;22.40;99.90
16441;DHT22;8330;-33.858;151.184;2023-11-21T13:21:36;22.40;99.90
16441;DHT22;8330;-33.858;151.184;2023-11-21T13:24:08;22.40;99.90
16441;DHT22;8330;-33.858;151.184;2023-11-21T13:26:38;22.40;99.90
16441;DHT22;8330;-33.858;151.184;2023-11-21T13:29:09;22.30;99.90
16441;DHT22;8330;-33.858;151.184;2023-11-21T13:31:41;22.30;99.90
16441;DHT22;8330;-33.858;151.184;2023-11-21T13:34:13;22.30;99.90
16441;DHT22;8330;-33.858;151.184;2023-11-21T13:36:47;22.30;99.90
16441;DHT22;8330;-33.858;151.184;2023-11-21T13:39:21;22.20;99.90
16441;DHT22;8330;-33.858;151.184;2023-11-21T13:41:53;22.20;99.90
16441;DHT22;8330;-33.858;151.184;2023-11-21T13:44:24;22.20;99.90
16441;DHT22;8330;-33.858;151.184;2023-11-21T13:47:02;22.30;99.90
16441;DHT22;8330;-33.858;151.184;2023-11-21T13:49:36;22.30;99.90
16441;DHT22;8330;-33.858;151.184;2023-11-21T13:52:08;22.30;99.90
16441;DHT22;8330;-33.858;151.184;2023-11-21T13:54:43;22.20;99.90
16441;DHT22;8330;-33.858;151.184;2023-11-21T13:57:15;22.20;99.90
16441;DHT22;8330;-33.858;151.184;2023-11-21T13:59:46;22.30;99.90
16441;DHT22;8330;-33.858;151.184;2023-11-21T14:02:17;22.30;99.90
16441;DHT22;8330;-33.858;151.184;2023-11-21T14:04:51;22.20;99.90
16441;DHT22;8330;-33.858;151.184;2023-11-21T14:07:27;22.30;99.90
16441;DHT22;8330;-33.858;151.184;2023-11-21T14:10:03;22.20;99.90
16441;DHT22;8330;-33.858;151.184;2023-11-21T14:12:35;22.20;99.90
16441;DHT22;8330;-33.858;151.184;2023-11-21T14:15:09;22.20;99.90
16441;DHT22;8330;-33.858;151.184;2023-11-21T14:17:44;22.20;99.90
16441;DHT22;8330;-33.858;151.184;2023-11-21T14:20:17;22.20;99.90
16441;DHT22;8330;-33.858;151.184;2023-11-21T14:22:48;22.20;99.90
16441;DHT22;8330;-33.858;151.184;2023-11-21T14:25:19;22.20;99.90
16441;DHT22;8330;-33.858;151.184;2023-11-21T14:27:50;22.10;99.90
16441;DHT22;8330;-33.858;151.184;2023-11-21T14:30:21;22.10;99.90
16441;DHT22;8330;-33.858;151.184;2023-11-21T14:32:52;22.20;99.90
16441;DHT22;8330;-33.858;151.184;2023-11-21T14:35:25;22.10;99.90
16441;DHT22;8330;-33.858;151.184;2023-11-21T14:37:58;22.10;99.90
16441;DHT22;8330;-33.858;151.184;2023-11-21T14:40:30;22.00;99.90
16441;DHT22;8330;-33.858;151.184;2023-11-21T14:43:02;22.10;99.90
16441;DHT22;8330;-33.858;151.184;2023-11-21T14:45:33;22.10;99.90
16441;DHT22;8330;-33.858;151.184;2023-11-21T14:48:04;22.10;99.90
16441;DHT22;8330;-33.858;151.184;2023-11-21T14:50:45;22.20;99.90
16441;DHT22;8330;-33.858;151.184;2023-11-21T14:53:38;22.20;99.90
16441;DHT22;8330;-33.858;151.184;2023-11-21T14:56:21;22.20;99.90
16441;DHT22;8330;-33.858;151.184;2023-11-21T14:58:54;22.10;99.90
16441;DHT22;8330;-33.858;151.184;2023-11-21T15:01:25;22.10;99.90
16441;DHT22;8330;-33.858;151.184;2023-11-21T15:04:12;22.20;99.90
16441;DHT22;8330;-33.858;151.184;2023-11-21T15:06:56;22.10;99.90
16441;DHT22;8330;-33.858;151.184;2023-11-21T15:09:26;22.10;99.90
16441;DHT22;8330;-33.858;151.184;2023-11-21T15:12:09;22.10;99.90
16441;DHT22;8330;-33.858;151.184;2023-11-21T15:14:44;21.90;99.90
16441;DHT22;8330;-33.858;151.184;2023-11-21T15:17:16;22.00;99.90
16441;DHT22;8330;-33.858;151.184;2023-11-21T15:19:52;22.00;99.90
16441;DHT22;8330;-33.858;151.184;2023-11-21T15:22:23;22.00;99.90
16441;DHT22;8330;-33.858;151.184;2023-11-21T15:24:55;21.90;99.90
16441;DHT22;8330;-33.858;151.184;2023-11-21T15:27:26;21.90;99.90
16441;DHT22;8330;-33.858;151.184;2023-11-21T15:29:57;22.00;99.90
16441;DHT22;8330;-33.858;151.184;2023-11-21T15:32:28;22.00;99.90
16441;DHT22;8330;-33.858;151.184;2023-11-21T15:34:59;22.00;99.90
16441;DHT22;8330;-33.858;151.184;2023-11-21T15:37:32;22.00;99.90